Time;durP1;ratioP1;P1;durP2;ratioP2;P2;SDS_P1;SDS_P2;PMS_P1;PMS_P2;Temp;Humidity;BMP_temperature;BMP_pressure;BME280_temperature;BME280_humidity;BME280_pressure;Samples;Min_cycle;Max_cycle;Signal;HPM_P1;HPM_P2
2022/02/03 00:01:09;;;;;;;52.30;22.10;;;;;;;;;;5043575;28;20193;-67
2022/02/03 00:03:49;;;;;;;51.43;21.83;;;;;;;;;;5040266;28;20216;-68
2022/02/03 00:06:19;;;;;;;51.10;22.80;;;;;;;;;;5047052;28;20256;-67
2022/02/03 00:22:00;;;;;;;56.17;21.57;;;;;;;;;;5047505;28;21013;-67
2022/02/03 00:23:24;;;;;;;53.80;21.27;;;;;;;;;;5040269;28;20221;-67
2022/02/03 00:25:48;;;;;;;56.53;22.13;;;;;;;;;;5048518;28;20189;-68
2022/02/03 00:28:23;;;;;;;53.20;20.90;;;;;;;;;;5044198;28;20268;-68
2022/02/03 00:38:28;;;;;;;57.73;21.87;;;;;;;;;;5040760;28;20217;-68
2022/02/03 00:49:08;;;;;;;55.07;22.37;;;;;;;;;;5040661;28;20200;-67
2022/02/03 00:51:35;;;;;;;57.93;23.50;;;;;;;;;;5036266;28;20178;-68
2022/02/03 00:54:01;;;;;;;63.67;23.73;;;;;;;;;;5045180;28;20279;-66
2022/02/03 00:56:38;;;;;;;55.70;21.30;;;;;;;;;;5043294;28;20227;-66
2022/02/03 00:59:08;;;;;;;58.53;22.53;;;;;;;;;;5043351;28;20239;-68
2022/02/03 01:01:36;;;;;;;59.78;22.60;;;;;;;;;;5044649;28;20225;-67
2022/02/03 01:04:06;;;;;;;54.33;21.77;;;;;;;;;;5041437;28;20634;-68
2022/02/03 01:06:35;;;;;;;55.77;21.43;;;;;;;;;;5041437;28;20192;-67
2022/02/03 01:09:02;;;;;;;59.43;22.30;;;;;;;;;;5042524;28;20280;-68
2022/02/03 01:11:36;;;;;;;60.30;22.77;;;;;;;;;;5043230;28;20177;-67
2022/02/03 01:14:08;;;;;;;54.97;22.47;;;;;;;;;;5044435;28;20193;-67
2022/02/03 01:17:04;;;;;;;63.85;23.75;;;;;;;;;;5050790;28;20186;-68
2022/02/03 01:43:58;;;;;;;57.37;24.13;;;;;;;;;;5040897;28;20196;-67
2022/02/03 01:46:45;;;;;;;52.22;22.98;;;;;;;;;;5040375;28;20197;-68
2022/02/03 01:49:16;;;;;;;55.88;22.67;;;;;;;;;;5041288;28;20190;-68
2022/02/03 01:51:56;;;;;;;56.53;24.92;;;;;;;;;;5041688;28;20269;-66
2022/02/03 01:54:28;;;;;;;58.22;25.42;;;;;;;;;;5039508;28;20617;-67
2022/02/03 01:57:13;;;;;;;53.73;24.93;;;;;;;;;;5045385;28;20189;-67
2022/02/03 01:59:40;;;;;;;58.33;26.27;;;;;;;;;;5043178;28;20591;-67
2022/02/03 02:02:07;;;;;;;59.10;26.75;;;;;;;;;;5043988;28;20209;-67
2022/02/03 02:05:02;;;;;;;54.33;26.00;;;;;;;;;;5046261;28;20191;-67
2022/02/03 02:07:36;;;;;;;59.00;26.52;;;;;;;;;;5045731;28;20185;-67
2022/02/03 02:10:47;;;;;;;59.15;25.92;;;;;;;;;;5043626;28;20189;-67
2022/02/03 02:14:26;;;;;;;57.97;26.27;;;;;;;;;;5037530;28;20722;-67
2022/02/03 02:39:31;;;;;;;61.55;27.80;;;;;;;;;;5022970;28;20194;-67
2022/02/03 02:42:34;;;;;;;57.03;27.80;;;;;;;;;;5022368;28;20217;-67
2022/02/03 02:45:11;;;;;;;56.47;26.70;;;;;;;;;;5046508;28;20196;-67
2022/02/03 02:48:06;;;;;;;55.85;27.20;;;;;;;;;;5049254;28;20203;-67
2022/02/03 02:50:52;;;;;;;56.75;26.92;;;;;;;;;;5050750;28;20185;-68
2022/02/03 02:56:24;;;;;;;60.10;27.52;;;;;;;;;;5046438;28;20615;-67
2022/02/03 02:59:19;;;;;;;56.85;27.98;;;;;;;;;;5047662;28;20189;-67
2022/02/03 03:29:49;;;;;;;59.53;30.53;;;;;;;;;;5050192;28;20254;-67
2022/02/03 03:35:02;;;;;;;61.90;31.75;;;;;;;;;;5044784;28;20668;-67
2022/02/03 03:37:48;;;;;;;60.60;32.55;;;;;;;;;;5049814;28;20237;-67
2022/02/03 03:40:16;;;;;;;57.92;31.60;;;;;;;;;;5045060;28;20358;-67
2022/02/03 03:43:17;;;;;;;70.45;34.88;;;;;;;;;;5042038;28;20251;-67
2022/02/03 03:45:51;;;;;;;67.30;32.50;;;;;;;;;;5039863;28;20209;-67
2022/02/03 03:48:18;;;;;;;61.50;32.70;;;;;;;;;;5043861;28;20197;-67
2022/02/03 03:50:49;;;;;;;64.93;32.78;;;;;;;;;;5047513;28;20190;-67
2022/02/03 03:53:25;;;;;;;65.30;33.60;;;;;;;;;;5044126;28;20192;-67
2022/02/03 03:56:18;;;;;;;62.15;33.63;;;;;;;;;;5041714;28;20774;-67
2022/02/03 03:59:08;;;;;;;63.25;32.92;;;;;;;;;;5045451;28;20203;-67
2022/02/03 04:34:33;;;;;;;64.82;33.95;;;;;;;;;;5044857;28;20232;-67
2022/02/03 04:43:53;;;;;;;71.03;34.77;;;;;;;;;;5044496;28;20723;-67
2022/02/03 05:04:28;;;;;;;72.23;35.80;;;;;;;;;;5042545;28;20197;-67
2022/02/03 05:07:29;;;;;;;78.10;36.30;;;;;;;;;;5044305;28;20186;-67
2022/02/03 05:14:19;;;;;;;71.45;35.72;;;;;;;;;;5043303;28;20260;-67
2022/02/03 05:23:41;;;;;;;65.70;32.22;;;;;;;;;;5039662;28;20212;-67
2022/02/03 05:44:20;;;;;;;55.67;28.42;;;;;;;;;;5042263;28;20262;-67
2022/02/03 05:52:38;;;;;;;57.70;26.40;;;;;;;;;;5043650;28;20197;-67
2022/02/03 06:03:18;;;;;;;47.53;23.47;;;;;;;;;;5041661;28;20219;-66
2022/02/03 06:08:37;;;;;;;46.27;23.23;;;;;;;;;;5046971;28;20193;-67
2022/02/03 06:14:06;;;;;;;43.40;21.70;;;;;;;;;;5043816;28;20200;-66
2022/02/03 06:16:48;;;;;;;42.60;22.13;;;;;;;;;;5043339;28;20185;-67
2022/02/03 06:22:23;;;;;;;40.67;21.70;;;;;;;;;;5050078;28;20288;-67
2022/02/03 06:27:26;;;;;;;39.13;20.13;;;;;;;;;;5049104;28;20668;-67
2022/02/03 06:29:55;;;;;;;43.47;22.00;;;;;;;;;;5045573;28;20316;-67
2022/02/03 06:32:22;;;;;;;39.37;22.00;;;;;;;;;;5047264;28;20201;-68
2022/02/03 06:34:48;;;;;;;44.13;22.17;;;;;;;;;;5047197;28;20505;-67
2022/02/03 06:37:13;;;;;;;43.83;21.83;;;;;;;;;;5050952;28;20192;-67
2022/02/03 06:39:39;;;;;;;38.60;20.10;;;;;;;;;;5048067;28;20185;-68
2022/02/03 06:42:06;;;;;;;37.77;19.67;;;;;;;;;;5047038;28;20251;-67
2022/02/03 06:44:37;;;;;;;35.92;18.90;;;;;;;;;;5043522;28;20193;-67
2022/02/03 06:49:50;;;;;;;35.72;17.85;;;;;;;;;;5042818;28;20200;-67
2022/02/03 06:52:23;;;;;;;33.00;15.70;;;;;;;;;;5042667;28;20181;-67
2022/02/03 06:57:25;;;;;;;24.60;14.23;;;;;;;;;;5043172;28;20200;-67
2022/02/03 06:59:58;;;;;;;22.63;12.93;;;;;;;;;;5043393;28;20582;-67
2022/02/03 07:02:27;;;;;;;24.83;12.63;;;;;;;;;;5042134;28;20598;-67
2022/02/03 07:04:53;;;;;;;21.67;11.90;;;;;;;;;;5044268;28;20230;-67
2022/02/03 07:07:19;;;;;;;20.83;11.73;;;;;;;;;;5040121;28;20186;-67
2022/02/03 07:09:48;;;;;;;27.20;13.20;;;;;;;;;;5056952;28;20177;-67
2022/02/03 07:12:13;;;;;;;26.10;13.60;;;;;;;;;;5037426;28;20181;-67
2022/02/03 07:14:39;;;;;;;20.73;12.53;;;;;;;;;;5038867;28;20182;-67
2022/02/03 07:17:05;;;;;;;26.52;12.88;;;;;;;;;;5040466;28;20181;-67
2022/02/03 07:19:34;;;;;;;26.13;14.67;;;;;;;;;;5038366;28;20193;-66
2022/02/03 07:21:59;;;;;;;25.90;13.47;;;;;;;;;;5041857;28;20664;-67
2022/02/03 07:24:25;;;;;;;23.43;13.73;;;;;;;;;;5043692;28;20562;-66
2022/02/03 07:26:50;;;;;;;24.60;14.20;;;;;;;;;;5044859;28;20273;-67
2022/02/03 07:29:16;;;;;;;25.08;13.57;;;;;;;;;;5047103;28;20231;-67
2022/02/03 07:31:41;;;;;;;25.47;14.77;;;;;;;;;;5048924;28;20564;-67
2022/02/03 07:34:12;;;;;;;23.92;13.50;;;;;;;;;;5047978;28;20639;-67
2022/02/03 07:36:37;;;;;;;24.25;14.27;;;;;;;;;;5049585;28;20621;-67
2022/02/03 07:39:04;;;;;;;21.67;13.60;;;;;;;;;;5046413;28;20228;-67
2022/02/03 07:41:30;;;;;;;24.80;13.80;;;;;;;;;;5041200;28;20201;-67
2022/02/03 07:43:56;;;;;;;25.77;14.25;;;;;;;;;;5045831;28;20188;-67
2022/02/03 07:46:21;;;;;;;27.20;14.48;;;;;;;;;;5048617;28;20558;-66
2022/02/03 07:48:49;;;;;;;22.87;13.80;;;;;;;;;;5046066;28;20186;-67
2022/02/03 07:51:16;;;;;;;21.50;13.73;;;;;;;;;;5047701;28;20177;-67
2022/02/03 07:53:41;;;;;;;29.67;14.27;;;;;;;;;;5045347;28;20549;-66
2022/02/03 07:56:07;;;;;;;21.97;12.83;;;;;;;;;;5048608;28;21242;-66
2022/02/03 07:58:32;;;;;;;25.25;13.85;;;;;;;;;;5045374;28;20264;-67
2022/02/03 08:00:58;;;;;;;26.47;13.40;;;;;;;;;;5046141;28;20232;-66
2022/02/03 08:03:24;;;;;;;22.27;12.13;;;;;;;;;;5046621;28;20601;-66
2022/02/03 08:05:56;;;;;;;20.67;12.13;;;;;;;;;;5049750;28;20186;-66
2022/02/03 08:08:30;;;;;;;23.17;12.45;;;;;;;;;;5045272;28;20486;-66
2022/02/03 08:11:00;;;;;;;17.90;11.17;;;;;;;;;;5042466;28;20267;-66
2022/02/03 08:13:31;;;;;;;22.10;11.43;;;;;;;;;;5047427;28;20345;-66
2022/02/03 08:16:14;;;;;;;22.90;11.77;;;;;;;;;;5042713;28;20185;-66
2022/02/03 08:18:42;;;;;;;18.50;11.17;;;;;;;;;;5051465;28;20189;-66
2022/02/03 08:21:11;;;;;;;18.98;10.27;;;;;;;;;;5045011;28;20182;-67
2022/02/03 08:31:26;;;;;;;16.23;7.68;;;;;;;;;;5044876;28;20739;-67
2022/02/03 08:33:54;;;;;;;11.10;7.03;;;;;;;;;;5043772;28;20308;-67
2022/02/03 08:36:21;;;;;;;13.90;7.13;;;;;;;;;;5039825;28;20455;-67
2022/02/03 08:38:50;;;;;;;13.32;6.13;;;;;;;;;;5044813;28;20193;-67
2022/02/03 08:41:16;;;;;;;11.35;6.63;;;;;;;;;;5049492;28;20198;-67
2022/02/03 08:43:43;;;;;;;8.60;5.63;;;;;;;;;;5043781;28;20181;-67
2022/02/03 08:46:12;;;;;;;10.07;5.60;;;;;;;;;;5057825;28;20186;-67
2022/02/03 08:48:38;;;;;;;10.50;5.30;;;;;;;;;;5044933;28;20186;-67
2022/02/03 08:51:06;;;;;;;14.07;6.13;;;;;;;;;;5045418;28;20645;-67
2022/02/03 08:53:38;;;;;;;9.02;4.97;;;;;;;;;;5049738;28;20537;-67
2022/02/03 08:56:14;;;;;;;9.43;5.50;;;;;;;;;;5047178;28;20190;-66
2022/02/03 09:52:49;;;;;;;13.23;6.10;;;;;;;;;;5042929;28;20235;-66
2022/02/03 09:57:40;;;;;;;12.63;6.30;;;;;;;;;;5043836;28;20220;-67
2022/02/03 10:00:42;;;;;;;14.15;7.10;;;;;;;;;;5042770;28;20216;-66
2022/02/03 10:03:15;;;;;;;15.30;6.93;;;;;;;;;;5041833;28;20211;-66
2022/02/03 10:06:01;;;;;;;10.48;6.57;;;;;;;;;;5044425;28;20269;-67
2022/02/03 10:08:28;;;;;;;12.23;7.00;;;;;;;;;;5059176;28;20178;-66
2022/02/03 10:11:18;;;;;;;15.65;6.90;;;;;;;;;;5045691;28;20780;-66
2022/02/03 10:13:49;;;;;;;10.85;7.25;;;;;;;;;;5038583;28;20181;-67
2022/02/03 10:16:17;;;;;;;17.05;6.53;;;;;;;;;;5043258;28;20224;-67
2022/02/03 10:18:43;;;;;;;12.32;6.97;;;;;;;;;;5042985;28;20195;-66
2022/02/03 10:21:16;;;;;;;12.95;6.60;;;;;;;;;;5044486;28;20246;-66
2022/02/03 10:24:06;;;;;;;9.60;6.40;;;;;;;;;;5042429;28;20200;-66
2022/02/03 10:26:37;;;;;;;11.73;6.40;;;;;;;;;;5039551;28;20603;-66
2022/02/03 10:29:11;;;;;;;12.15;6.53;;;;;;;;;;5038466;28;20189;-67
2022/02/03 10:31:40;;;;;;;13.95;6.68;;;;;;;;;;5046577;28;20272;-67
2022/02/03 10:34:10;;;;;;;14.07;6.72;;;;;;;;;;5044178;28;20190;-67
2022/02/03 10:36:42;;;;;;;13.20;6.60;;;;;;;;;;5038336;28;20181;-67
2022/02/03 10:39:59;;;;;;;15.02;6.63;;;;;;;;;;5047394;28;20184;-67
2022/02/03 10:42:25;;;;;;;13.35;7.10;;;;;;;;;;5046221;28;20217;-67
2022/02/03 10:50:45;;;;;;;13.75;7.30;;;;;;;;;;5049715;28;20193;-67
2022/02/03 11:08:53;;;;;;;10.40;6.40;;;;;;;;;;5049783;28;20239;-67
2022/02/03 11:11:23;;;;;;;10.73;6.05;;;;;;;;;;5048855;28;20173;-66
2022/02/03 11:13:50;;;;;;;13.38;6.40;;;;;;;;;;5048140;28;20189;-66
2022/02/03 11:16:18;;;;;;;13.95;6.88;;;;;;;;;;5047881;28;20706;-66
2022/02/03 11:18:46;;;;;;;10.82;6.72;;;;;;;;;;5043615;28;20202;-67
2022/02/03 11:21:16;;;;;;;13.65;6.28;;;;;;;;;;5046182;28;20181;-67
2022/02/03 11:23:49;;;;;;;12.40;6.43;;;;;;;;;;5047214;28;20644;-67
2022/02/03 11:26:25;;;;;;;10.87;6.90;;;;;;;;;;5050734;28;20247;-67
2022/02/03 11:29:11;;;;;;;14.20;7.75;;;;;;;;;;5044240;28;20181;-67
2022/02/03 11:42:22;;;;;;;11.68;6.22;;;;;;;;;;5045609;28;20394;-66
2022/02/03 11:47:55;;;;;;;11.03;6.70;;;;;;;;;;5046268;28;20189;-66
2022/02/03 12:01:30;;;;;;;17.07;6.90;;;;;;;;;;5047238;28;20490;-66
2022/02/03 12:15:30;;;;;;;16.95;7.45;;;;;;;;;;5040216;28;20205;-67
2022/02/03 12:20:56;;;;;;;12.52;6.80;;;;;;;;;;5054691;28;20177;-67
2022/02/03 12:23:57;;;;;;;12.85;7.68;;;;;;;;;;5044806;28;20209;-66
2022/02/03 12:26:28;;;;;;;12.80;6.53;;;;;;;;;;5055951;28;20635;-66
2022/02/03 12:29:11;;;;;;;12.73;7.22;;;;;;;;;;5054653;28;20184;-67
2022/02/03 12:31:53;;;;;;;14.40;6.60;;;;;;;;;;5046668;28;20498;-67
2022/02/03 12:37:11;;;;;;;12.35;6.55;;;;;;;;;;5049530;28;20553;-67
2022/02/03 12:40:26;;;;;;;10.40;6.22;;;;;;;;;;5050702;28;20280;-66
2022/02/03 12:45:17;;;;;;;9.10;5.65;;;;;;;;;;5047951;28;20287;-66
2022/02/03 12:47:47;;;;;;;12.00;6.30;;;;;;;;;;5047704;28;20659;-67
2022/02/03 12:50:14;;;;;;;13.05;6.20;;;;;;;;;;5044474;28;20178;-67
2022/02/03 12:52:43;;;;;;;13.95;6.18;;;;;;;;;;5061246;28;20520;-67
2022/02/03 12:55:09;;;;;;;11.85;6.35;;;;;;;;;;5045591;28;20184;-67
2022/02/03 12:57:35;;;;;;;8.93;5.78;;;;;;;;;;5052459;28;20615;-66
2022/02/03 13:00:15;;;;;;;11.93;6.97;;;;;;;;;;5044049;28;20296;-66
2022/02/03 13:02:41;;;;;;;13.60;7.05;;;;;;;;;;5055550;28;20254;-66
2022/02/03 13:05:06;;;;;;;12.73;6.25;;;;;;;;;;5049236;28;20220;-66
2022/02/03 13:07:32;;;;;;;18.90;6.65;;;;;;;;;;5053781;28;20185;-66
2022/02/03 13:10:07;;;;;;;12.93;7.80;;;;;;;;;;5045983;28;20259;-66
2022/02/03 13:12:37;;;;;;;21.33;7.57;;;;;;;;;;5044314;28;20184;-66
2022/02/03 13:15:05;;;;;;;16.17;7.63;;;;;;;;;;5049876;28;20655;-67
2022/02/03 13:17:36;;;;;;;14.18;8.02;;;;;;;;;;5044988;28;20193;-67
2022/02/03 13:20:17;;;;;;;17.80;8.10;;;;;;;;;;5058756;28;20310;-67
2022/02/03 13:22:50;;;;;;;15.77;7.78;;;;;;;;;;5044322;28;20204;-67
2022/02/03 13:25:30;;;;;;;15.85;8.48;;;;;;;;;;5056937;28;20194;-67
2022/02/03 13:28:04;;;;;;;13.98;8.20;;;;;;;;;;5043368;28;20189;-67
2022/02/03 13:30:33;;;;;;;22.58;8.77;;;;;;;;;;5049004;28;20695;-66
2022/02/03 13:33:02;;;;;;;17.10;8.98;;;;;;;;;;5046900;28;20235;-67
2022/02/03 13:35:40;;;;;;;18.67;9.88;;;;;;;;;;5049840;28;20248;-67
2022/02/03 13:38:12;;;;;;;20.00;9.50;;;;;;;;;;5051934;28;20327;-67
2022/02/03 13:40:37;;;;;;;17.93;9.10;;;;;;;;;;5043697;28;20180;-68
2022/02/03 13:43:10;;;;;;;17.37;9.87;;;;;;;;;;5043726;28;20224;-66
2022/02/03 13:45:43;;;;;;;18.92;8.63;;;;;;;;;;5042800;28;20268;-67
2022/02/03 13:48:20;;;;;;;13.88;8.07;;;;;;;;;;5044557;28;20185;-67
2022/02/03 13:50:55;;;;;;;17.88;8.82;;;;;;;;;;5049785;28;20255;-67
2022/02/03 13:53:31;;;;;;;13.55;8.38;;;;;;;;;;5047642;28;20540;-67
2022/02/03 14:15:45;;;;;;;24.05;10.48;;;;;;;;;;5052623;28;20273;-66
2022/02/03 14:20:45;;;;;;;18.02;9.50;;;;;;;;;;5052175;28;20206;-67
2022/02/03 14:28:22;;;;;;;19.27;9.43;;;;;;;;;;5050396;28;20231;-67
2022/02/03 14:30:52;;;;;;;17.67;8.07;;;;;;;;;;5047266;28;20232;-67
2022/02/03 14:33:25;;;;;;;17.88;8.60;;;;;;;;;;5044642;28;20230;-67
2022/02/03 14:35:50;;;;;;;17.35;8.57;;;;;;;;;;5045666;28;20656;-67
2022/02/03 14:38:21;;;;;;;16.38;8.18;;;;;;;;;;5045957;28;20188;-66
2022/02/03 14:40:56;;;;;;;14.70;8.00;;;;;;;;;;5041541;28;20196;-67
2022/02/03 14:43:21;;;;;;;13.10;7.57;;;;;;;;;;5042471;28;20221;-67
2022/02/03 14:45:48;;;;;;;13.43;7.88;;;;;;;;;;5047774;28;20262;-66
2022/02/03 14:48:15;;;;;;;16.08;7.47;;;;;;;;;;5047627;28;20188;-66
2022/02/03 14:50:42;;;;;;;11.70;7.32;;;;;;;;;;5042932;28;20208;-67
2022/02/03 14:53:14;;;;;;;17.60;7.35;;;;;;;;;;5047713;28;20262;-66
2022/02/03 14:58:27;;;;;;;13.00;7.03;;;;;;;;;;5036054;28;20207;-66
2022/02/03 15:00:53;;;;;;;16.73;7.22;;;;;;;;;;5043058;28;20221;-67
2022/02/03 15:03:22;;;;;;;13.80;7.93;;;;;;;;;;5039919;28;20632;-66
2022/02/03 15:05:47;;;;;;;13.80;7.43;;;;;;;;;;5043731;28;20178;-68
2022/02/03 15:08:43;;;;;;;12.60;7.83;;;;;;;;;;5042613;28;20691;-67
2022/02/03 15:11:14;;;;;;;14.82;7.55;;;;;;;;;;5046280;28;20215;-67
2022/02/03 15:13:41;;;;;;;13.23;8.00;;;;;;;;;;5039843;28;20864;-68
2022/02/03 15:16:08;;;;;;;15.13;8.40;;;;;;;;;;5047352;28;20764;-67
2022/02/03 15:18:34;;;;;;;14.33;9.03;;;;;;;;;;5039876;28;20193;-66
2022/02/03 15:20:59;;;;;;;16.33;8.60;;;;;;;;;;5054126;28;20618;-67
2022/02/03 15:23:26;;;;;;;15.55;9.10;;;;;;;;;;5042077;28;20284;-67
2022/02/03 15:25:52;;;;;;;20.25;10.30;;;;;;;;;;5038624;28;20224;-67
2022/02/03 15:28:18;;;;;;;19.13;10.30;;;;;;;;;;5041050;28;20209;-67
2022/02/03 15:30:44;;;;;;;17.90;11.00;;;;;;;;;;5048126;28;20777;-67
2022/02/03 15:33:09;;;;;;;21.50;10.83;;;;;;;;;;5052747;28;20205;-66
2022/02/03 15:35:43;;;;;;;20.23;11.23;;;;;;;;;;5045666;28;20672;-66
2022/02/03 15:38:13;;;;;;;19.07;9.67;;;;;;;;;;5046433;28;20275;-67
2022/02/03 15:40:39;;;;;;;16.92;9.52;;;;;;;;;;5047986;28;20625;-67
2022/02/03 15:43:08;;;;;;;15.95;9.32;;;;;;;;;;5045763;28;20216;-68
2022/02/03 15:45:44;;;;;;;14.90;8.80;;;;;;;;;;5038642;28;20264;-68
2022/02/03 15:48:18;;;;;;;19.57;9.90;;;;;;;;;;5037509;28;21703;-67
2022/02/03 15:51:08;;;;;;;15.73;8.93;;;;;;;;;;5040986;28;20577;-67
2022/02/03 16:02:07;;;;;;;17.00;9.93;;;;;;;;;;5044843;28;20228;-67
2022/02/03 16:18:03;;;;;;;18.87;10.27;;;;;;;;;;5044334;28;20600;-67
2022/02/03 16:20:38;;;;;;;18.10;11.00;;;;;;;;;;5048979;28;20186;-67
2022/02/03 16:23:23;;;;;;;17.80;10.30;;;;;;;;;;5043922;28;20570;-67
2022/02/03 16:26:38;;;;;;;19.10;11.37;;;;;;;;;;5039217;28;20340;-68
2022/02/03 16:53:14;;;;;;;17.00;10.63;;;;;;;;;;5047260;28;20185;-67
2022/02/03 16:55:42;;;;;;;20.43;12.07;;;;;;;;;;5047701;28;20744;-67
2022/02/03 16:58:09;;;;;;;23.00;12.23;;;;;;;;;;5048333;28;20642;-67
2022/02/03 17:00:35;;;;;;;18.87;12.20;;;;;;;;;;5044243;28;20323;-67
2022/02/03 17:03:02;;;;;;;19.57;12.30;;;;;;;;;;5046084;28;20545;-67
2022/02/03 17:05:28;;;;;;;20.30;12.00;;;;;;;;;;5044236;28;20338;-67
2022/02/03 17:07:53;;;;;;;21.67;12.33;;;;;;;;;;5053936;28;20215;-67
2022/02/03 17:10:19;;;;;;;22.23;12.87;;;;;;;;;;5042797;28;20731;-68
2022/02/03 17:12:44;;;;;;;23.23;13.47;;;;;;;;;;5050828;28;20174;-68
2022/02/03 17:15:10;;;;;;;21.47;12.57;;;;;;;;;;5046466;28;20189;-69
2022/02/03 17:17:35;;;;;;;23.17;13.10;;;;;;;;;;5047755;28;20185;-69
2022/02/03 17:20:02;;;;;;;21.13;13.50;;;;;;;;;;5043398;28;20188;-67
2022/02/03 17:22:33;;;;;;;23.97;13.13;;;;;;;;;;5041166;28;20239;-67
2022/02/03 17:25:14;;;;;;;23.08;13.95;;;;;;;;;;5039108;28;20189;-68
2022/02/03 17:27:46;;;;;;;24.50;14.00;;;;;;;;;;5040059;28;20189;-68
2022/02/03 17:30:18;;;;;;;23.00;13.03;;;;;;;;;;5039460;28;20235;-68
2022/02/03 18:10:24;;;;;;;31.07;16.70;;;;;;;;;;5045809;28;20591;-69
2022/02/03 18:17:18;;;;;;;33.03;17.17;;;;;;;;;;5055784;28;20211;-69
2022/02/03 18:27:50;;;;;;;36.70;18.33;;;;;;;;;;5046696;28;20292;-69
2022/02/03 18:30:05;;;;;;;33.53;18.80;;;;;;;;;;5047085;28;20708;-68
2022/02/03 18:47:04;;;;;;;36.73;19.53;;;;;;;;;;5044635;28;20231;-68
2022/02/03 18:52:26;;;;;;;38.50;20.20;;;;;;;;;;5045377;28;20201;-68
2022/02/03 18:54:27;;;;;;;35.13;19.70;;;;;;;;;;5039287;28;20201;-67
2022/02/03 19:10:25;;;;;;;38.40;20.90;;;;;;;;;;5042583;28;20243;-68
2022/02/03 19:14:11;;;;;;;38.50;20.73;;;;;;;;;;5044742;28;20406;-68
2022/02/03 19:29:05;;;;;;;36.67;20.00;;;;;;;;;;5048140;28;20193;-67
2022/02/03 20:06:34;;;;;;;42.30;22.47;;;;;;;;;;5048654;28;20176;-67
2022/02/03 20:09:11;;;;;;;45.57;24.63;;;;;;;;;;5054408;28;20189;-67
2022/02/03 20:11:37;;;;;;;45.10;24.00;;;;;;;;;;5039013;28;20178;-67
2022/02/03 20:14:12;;;;;;;45.10;23.13;;;;;;;;;;5036455;28;20577;-67
2022/02/03 20:16:39;;;;;;;43.67;22.87;;;;;;;;;;5038122;28;20649;-67
2022/02/03 20:19:04;;;;;;;47.07;24.37;;;;;;;;;;5038074;28;20640;-66
2022/02/03 20:21:32;;;;;;;48.03;23.87;;;;;;;;;;5045274;28;20203;-67
2022/02/03 20:23:58;;;;;;;44.77;24.73;;;;;;;;;;5046571;28;20637;-67
2022/02/03 20:26:23;;;;;;;46.50;24.50;;;;;;;;;;5059190;28;20195;-67
2022/02/03 20:28:48;;;;;;;43.57;24.33;;;;;;;;;;5045473;28;20201;-67
2022/02/03 20:31:14;;;;;;;42.03;23.97;;;;;;;;;;5051452;28;20257;-67
2022/02/03 20:33:39;;;;;;;44.77;24.53;;;;;;;;;;5040960;28;20193;-67
2022/02/03 20:36:09;;;;;;;47.53;25.30;;;;;;;;;;5053792;28;20195;-67
2022/02/03 20:38:35;;;;;;;46.43;24.27;;;;;;;;;;5045726;28;20254;-67
2022/02/03 20:41:01;;;;;;;45.53;24.33;;;;;;;;;;5049130;28;20186;-67
2022/02/03 20:43:26;;;;;;;40.57;22.87;;;;;;;;;;5044765;28;20239;-67
2022/02/03 20:45:52;;;;;;;44.00;24.87;;;;;;;;;;5046995;28;20203;-66
2022/02/03 20:48:18;;;;;;;46.07;24.70;;;;;;;;;;5045160;28;20193;-67
2022/02/03 20:50:47;;;;;;;48.20;24.53;;;;;;;;;;5044513;28;20189;-67
2022/02/03 20:53:14;;;;;;;47.57;26.70;;;;;;;;;;5049285;28;20173;-66
2022/02/03 20:55:43;;;;;;;46.27;24.40;;;;;;;;;;5048568;28;20194;-67
2022/02/03 20:58:13;;;;;;;48.77;26.27;;;;;;;;;;5040426;28;20181;-67
2022/02/03 21:00:46;;;;;;;50.37;25.70;;;;;;;;;;5043598;28;20229;-67
2022/02/03 21:03:21;;;;;;;47.90;26.10;;;;;;;;;;5052553;28;20233;-68
2022/02/03 21:05:46;;;;;;;49.47;25.27;;;;;;;;;;5043430;28;20265;-67
2022/02/03 21:08:12;;;;;;;44.60;24.30;;;;;;;;;;5058207;28;20200;-66
2022/02/03 21:10:37;;;;;;;48.03;26.40;;;;;;;;;;5048249;28;20482;-66
2022/02/03 21:13:03;;;;;;;47.83;25.17;;;;;;;;;;5053573;28;20181;-67
2022/02/03 21:15:39;;;;;;;47.07;24.87;;;;;;;;;;5043402;28;20182;-67
2022/02/03 21:18:09;;;;;;;51.40;26.20;;;;;;;;;;5041615;28;20573;-67
2022/02/03 21:20:37;;;;;;;51.03;26.57;;;;;;;;;;5043262;28;20211;-67
2022/02/03 21:23:04;;;;;;;49.60;26.63;;;;;;;;;;5043325;28;20206;-67
2022/02/03 21:25:37;;;;;;;57.17;27.80;;;;;;;;;;5043464;28;20178;-67
2022/02/03 21:28:12;;;;;;;53.07;27.67;;;;;;;;;;5045073;28;20196;-67
2022/02/03 21:30:38;;;;;;;55.50;28.23;;;;;;;;;;5040506;28;20201;-66
2022/02/03 21:33:06;;;;;;;51.63;27.07;;;;;;;;;;5042029;28;20186;-68
2022/02/03 21:35:32;;;;;;;49.90;26.37;;;;;;;;;;5036963;28;20653;-66
2022/02/03 21:37:57;;;;;;;48.67;25.27;;;;;;;;;;5041821;28;20247;-66
2022/02/03 21:40:23;;;;;;;55.13;27.40;;;;;;;;;;5054571;28;20298;-66
2022/02/03 21:42:51;;;;;;;48.33;26.43;;;;;;;;;;5043290;28;20233;-67
2022/02/03 21:45:18;;;;;;;50.13;26.57;;;;;;;;;;5053223;28;20308;-66
2022/02/03 21:47:45;;;;;;;52.20;27.23;;;;;;;;;;5039088;28;20185;-66
2022/02/03 21:50:11;;;;;;;53.20;27.40;;;;;;;;;;5038221;28;20182;-66
2022/02/03 21:52:43;;;;;;;49.57;25.60;;;;;;;;;;5040493;28;20185;-66
2022/02/03 21:55:09;;;;;;;53.47;27.37;;;;;;;;;;5049822;28;20197;-66
2022/02/03 21:57:37;;;;;;;50.33;26.97;;;;;;;;;;5042480;28;20315;-67
2022/02/03 22:00:03;;;;;;;49.70;26.07;;;;;;;;;;5050506;28;20264;-67
2022/02/03 22:02:29;;;;;;;54.00;27.43;;;;;;;;;;5043416;28;20580;-67
2022/02/03 22:04:55;;;;;;;49.80;25.93;;;;;;;;;;5052534;28;20189;-67
2022/02/03 22:07:20;;;;;;;52.10;26.57;;;;;;;;;;5048047;28;20279;-66
2022/02/03 22:09:46;;;;;;;50.77;26.50;;;;;;;;;;5048649;28;20276;-67
2022/02/03 22:12:11;;;;;;;50.90;26.03;;;;;;;;;;5047831;28;20189;-67
2022/02/03 22:14:37;;;;;;;50.90;25.83;;;;;;;;;;5042402;28;20210;-66
2022/02/03 22:17:02;;;;;;;53.20;26.33;;;;;;;;;;5049206;28;20188;-67
2022/02/03 22:19:29;;;;;;;50.30;25.90;;;;;;;;;;5050864;28;20181;-66
2022/02/03 22:45:02;;;;;;;49.40;25.17;;;;;;;;;;5045309;28;20585;-67
2022/02/03 22:47:39;;;;;;;48.20;26.30;;;;;;;;;;5056649;28;20185;-67
2022/02/03 22:50:06;;;;;;;51.03;26.33;;;;;;;;;;5043415;28;20609;-67
2022/02/03 22:52:32;;;;;;;48.77;24.73;;;;;;;;;;5048675;28;20637;-67
2022/02/03 22:54:58;;;;;;;47.33;25.13;;;;;;;;;;5041091;28;20268;-66
2022/02/03 22:57:23;;;;;;;49.10;25.30;;;;;;;;;;5045084;28;20235;-66
2022/02/03 23:02:20;;;;;;;50.07;25.80;;;;;;;;;;5044320;28;20268;-66
2022/02/03 23:04:45;;;;;;;51.23;26.10;;;;;;;;;;5057639;28;20261;-67
2022/02/03 23:07:21;;;;;;;50.63;24.90;;;;;;;;;;5054890;28;20228;-66
2022/02/03 23:12:40;;;;;;;50.47;24.33;;;;;;;;;;5048874;28;20597;-66
2022/02/03 23:15:27;;;;;;;52.70;27.97;;;;;;;;;;5060494;28;20196;-66
2022/02/03 23:17:54;;;;;;;53.77;26.67;;;;;;;;;;5046329;28;20205;-66
2022/02/03 23:20:24;;;;;;;52.23;26.73;;;;;;;;;;5055744;28;20207;-67
2022/02/03 23:22:51;;;;;;;53.10;26.57;;;;;;;;;;5045749;28;20576;-67
2022/02/03 23:25:19;;;;;;;53.90;27.03;;;;;;;;;;5051496;28;20605;-67
2022/02/03 23:30:19;;;;;;;52.87;27.70;;;;;;;;;;5060709;28;20212;-66
2022/02/03 23:32:44;;;;;;;52.93;27.73;;;;;;;;;;5047788;28;20178;-66
2022/02/03 23:35:18;;;;;;;55.10;28.13;;;;;;;;;;5057460;28;20213;-66
2022/02/03 23:37:48;;;;;;;55.37;27.27;;;;;;;;;;5046425;28;20546;-66
2022/02/03 23:46:04;;;;;;;51.77;26.07;;;;;;;;;;5048181;28;20639;-67
2022/02/03 23:51:44;;;;;;;51.20;26.10;;;;;;;;;;5058141;28;20209;-66
